sensor_id;sensor_type;location;lat;lon;timestamp;pressure;altitude;pressure_sealevel;temperature;humidity
19236;BME280;9752;54.270;12.470;2023-02-02T00:04:37;100503.22;;;4.20;100.00
19236;BME280;9752;54.270;12.470;2023-02-02T00:09:39;100519.75;;;4.24;100.00
19236;BME280;9752;54.270;12.470;2023-02-02T00:14:42;100549.69;;;4.23;100.00
19236;BME280;9752;54.270;12.470;2023-02-02T00:19:43;100560.97;;;4.15;100.00
19236;BME280;9752;54.270;12.470;2023-02-02T00:24:46;100571.91;;;4.13;100.00
19236;BME280;9752;54.270;12.470;2023-02-02T00:29:49;100591.53;;;4.12;100.00
19236;BME280;9752;54.270;12.470;2023-02-02T00:34:52;100600.25;;;4.04;100.00
19236;BME280;9752;54.270;12.470;2023-02-02T00:39:54;100592.81;;;4.07;100.00
19236;BME280;9752;54.270;12.470;2023-02-02T00:44:57;100632.72;;;4.03;100.00
19236;BME280;9752;54.270;12.470;2023-02-02T00:50:19;100619.50;;;4.09;100.00
19236;BME280;9752;54.270;12.470;2023-02-02T00:55:21;100670.56;;;4.06;100.00
19236;BME280;9752;54.270;12.470;2023-02-02T01:00:25;100683.41;;;4.06;100.00
19236;BME280;9752;54.270;12.470;2023-02-02T01:05:28;100710.38;;;4.01;100.00
19236;BME280;9752;54.270;12.470;2023-02-02T01:10:30;100737.56;;;3.99;100.00
19236;BME280;9752;54.270;12.470;2023-02-02T01:15:35;100747.56;;;3.96;100.00
19236;BME280;9752;54.270;12.470;2023-02-02T01:20:38;100739.72;;;3.94;100.00
19236;BME280;9752;54.270;12.470;2023-02-02T01:25:39;100741.25;;;3.92;100.00
19236;BME280;9752;54.270;12.470;2023-02-02T01:30:42;100749.75;;;3.91;100.00
19236;BME280;9752;54.270;12.470;2023-02-02T01:35:45;100762.53;;;3.81;100.00
19236;BME280;9752;54.270;12.470;2023-02-02T01:40:48;100759.59;;;3.76;100.00
19236;BME280;9752;54.270;12.470;2023-02-02T01:45:53;100797.78;;;3.73;100.00
19236;BME280;9752;54.270;12.470;2023-02-02T01:50:58;100788.69;;;3.66;100.00
19236;BME280;9752;54.270;12.470;2023-02-02T01:56:02;100827.25;;;3.68;100.00
19236;BME280;9752;54.270;12.470;2023-02-02T02:01:07;100820.19;;;3.55;100.00
19236;BME280;9752;54.270;12.470;2023-02-02T02:06:12;100832.84;;;3.54;100.00
19236;BME280;9752;54.270;12.470;2023-02-02T02:11:14;100835.91;;;3.49;100.00
19236;BME280;9752;54.270;12.470;2023-02-02T02:16:22;100872.16;;;3.44;100.00
19236;BME280;9752;54.270;12.470;2023-02-02T02:21:34;100845.34;;;3.40;100.00
19236;BME280;9752;54.270;12.470;2023-02-02T02:27:06;100867.38;;;3.38;100.00
19236;BME280;9752;54.270;12.470;2023-02-02T02:32:24;100891.34;;;3.39;100.00
19236;BME280;9752;54.270;12.470;2023-02-02T02:37:36;100874.94;;;3.37;100.00
19236;BME280;9752;54.270;12.470;2023-02-02T02:42:44;100891.22;;;3.37;100.00
19236;BME280;9752;54.270;12.470;2023-02-02T02:47:50;100893.38;;;3.32;100.00
19236;BME280;9752;54.270;12.470;2023-02-02T02:53:02;100900.63;;;3.28;100.00
19236;BME280;9752;54.270;12.470;2023-02-02T02:58:07;100910.03;;;3.19;100.00
19236;BME280;9752;54.270;12.470;2023-02-02T03:03:19;100924.31;;;3.06;100.00
19236;BME280;9752;54.270;12.470;2023-02-02T03:08:29;100931.00;;;2.96;100.00
19236;BME280;9752;54.270;12.470;2023-02-02T03:13:33;100955.34;;;2.82;100.00
19236;BME280;9752;54.270;12.470;2023-02-02T03:18:36;100988.66;;;2.82;100.00
19236;BME280;9752;54.270;12.470;2023-02-02T03:23:39;100994.97;;;2.85;100.00
19236;BME280;9752;54.270;12.470;2023-02-02T03:28:41;100992.09;;;2.91;100.00
19236;BME280;9752;54.270;12.470;2023-02-02T03:33:44;101010.16;;;2.92;100.00
19236;BME280;9752;54.270;12.470;2023-02-02T03:38:47;101029.88;;;2.93;100.00
19236;BME280;9752;54.270;12.470;2023-02-02T03:43:48;101025.38;;;2.91;100.00
19236;BME280;9752;54.270;12.470;2023-02-02T03:48:51;101043.16;;;2.89;100.00
19236;BME280;9752;54.270;12.470;2023-02-02T03:53:53;101029.78;;;2.83;100.00
19236;BME280;9752;54.270;12.470;2023-02-02T03:58:55;101065.50;;;2.82;100.00
19236;BME280;9752;54.270;12.470;2023-02-02T04:03:58;101091.13;;;2.82;100.00
19236;BME280;9752;54.270;12.470;2023-02-02T04:09:00;101086.00;;;2.82;100.00
19236;BME280;9752;54.270;12.470;2023-02-02T04:14:01;101087.97;;;2.76;100.00
19236;BME280;9752;54.270;12.470;2023-02-02T04:19:04;101098.38;;;2.77;100.00
19236;BME280;9752;54.270;12.470;2023-02-02T04:24:09;101108.00;;;2.71;100.00
19236;BME280;9752;54.270;12.470;2023-02-02T04:29:11;101121.28;;;2.67;100.00
19236;BME280;9752;54.270;12.470;2023-02-02T04:34:14;101128.81;;;2.65;100.00
19236;BME280;9752;54.270;12.470;2023-02-02T04:39:16;101133.19;;;2.66;100.00
19236;BME280;9752;54.270;12.470;2023-02-02T04:44:17;101145.25;;;2.59;100.00
19236;BME280;9752;54.270;12.470;2023-02-02T04:49:21;101132.75;;;2.53;100.00
19236;BME280;9752;54.270;12.470;2023-02-02T04:54:22;101154.44;;;2.48;100.00
19236;BME280;9752;54.270;12.470;2023-02-02T04:59:27;101157.13;;;2.41;100.00
19236;BME280;9752;54.270;12.470;2023-02-02T05:04:30;101168.59;;;2.36;100.00
19236;BME280;9752;54.270;12.470;2023-02-02T05:09:32;101161.81;;;2.27;100.00
19236;BME280;9752;54.270;12.470;2023-02-02T05:14:33;101188.47;;;2.21;100.00
19236;BME280;9752;54.270;12.470;2023-02-02T05:19:36;101192.94;;;2.06;100.00
19236;BME280;9752;54.270;12.470;2023-02-02T05:24:38;101195.63;;;1.99;100.00
19236;BME280;9752;54.270;12.470;2023-02-02T05:29:39;101204.16;;;1.82;100.00
19236;BME280;9752;54.270;12.470;2023-02-02T05:34:42;101188.38;;;1.77;100.00
19236;BME280;9752;54.270;12.470;2023-02-02T05:39:44;101205.16;;;1.66;100.00
19236;BME280;9752;54.270;12.470;2023-02-02T05:44:46;101221.13;;;1.64;100.00
19236;BME280;9752;54.270;12.470;2023-02-02T05:49:49;101229.56;;;1.71;100.00
19236;BME280;9752;54.270;12.470;2023-02-02T05:54:51;101230.13;;;1.69;100.00
19236;BME280;9752;54.270;12.470;2023-02-02T05:59:52;101251.53;;;1.78;100.00
19236;BME280;9752;54.270;12.470;2023-02-02T06:04:55;101257.25;;;1.75;100.00
19236;BME280;9752;54.270;12.470;2023-02-02T06:09:57;101268.09;;;1.73;100.00
19236;BME280;9752;54.270;12.470;2023-02-02T06:14:59;101276.16;;;1.69;100.00
19236;BME280;9752;54.270;12.470;2023-02-02T06:20:02;101279.22;;;1.73;100.00
19236;BME280;9752;54.270;12.470;2023-02-02T06:25:05;101297.38;;;1.68;100.00
19236;BME280;9752;54.270;12.470;2023-02-02T06:30:09;101314.84;;;1.72;100.00
19236;BME280;9752;54.270;12.470;2023-02-02T06:35:12;101333.72;;;1.81;100.00
19236;BME280;9752;54.270;12.470;2023-02-02T06:40:14;101339.97;;;2.01;100.00
19236;BME280;9752;54.270;12.470;2023-02-02T06:45:16;101360.22;;;2.15;100.00
19236;BME280;9752;54.270;12.470;2023-02-02T06:50:19;101382.53;;;2.25;100.00
19236;BME280;9752;54.270;12.470;2023-02-02T06:55:20;101378.63;;;2.28;100.00
19236;BME280;9752;54.270;12.470;2023-02-02T07:00:22;101382.25;;;2.30;100.00
19236;BME280;9752;54.270;12.470;2023-02-02T07:05:27;101388.44;;;2.32;100.00
19236;BME280;9752;54.270;12.470;2023-02-02T07:10:29;101399.88;;;2.36;100.00
19236;BME280;9752;54.270;12.470;2023-02-02T07:15:30;101403.19;;;2.35;100.00
19236;BME280;9752;54.270;12.470;2023-02-02T07:20:33;101410.28;;;2.38;100.00
19236;BME280;9752;54.270;12.470;2023-02-02T07:25:35;101429.00;;;2.45;100.00
19236;BME280;9752;54.270;12.470;2023-02-02T07:30:37;101445.00;;;2.27;100.00
19236;BME280;9752;54.270;12.470;2023-02-02T07:35:40;101447.03;;;1.89;100.00
19236;BME280;9752;54.270;12.470;2023-02-02T07:40:42;101462.50;;;1.82;100.00
19236;BME280;9752;54.270;12.470;2023-02-02T07:45:44;101466.06;;;1.75;100.00
19236;BME280;9752;54.270;12.470;2023-02-02T07:50:47;101478.59;;;1.65;100.00
19236;BME280;9752;54.270;12.470;2023-02-02T07:55:49;101483.84;;;1.58;100.00
19236;BME280;9752;54.270;12.470;2023-02-02T08:00:51;101507.00;;;1.43;100.00
19236;BME280;9752;54.270;12.470;2023-02-02T08:05:54;101502.63;;;1.58;100.00
19236;BME280;9752;54.270;12.470;2023-02-02T08:10:55;101529.06;;;1.74;100.00
19236;BME280;9752;54.270;12.470;2023-02-02T08:15:57;101553.44;;;1.71;100.00
19236;BME280;9752;54.270;12.470;2023-02-02T08:21:02;101578.91;;;1.78;100.00
19236;BME280;9752;54.270;12.470;2023-02-02T08:26:06;101555.75;;;1.77;100.00
19236;BME280;9752;54.270;12.470;2023-02-02T08:31:10;101566.97;;;1.70;100.00
19236;BME280;9752;54.270;12.470;2023-02-02T08:36:16;101577.66;;;1.74;100.00
19236;BME280;9752;54.270;12.470;2023-02-02T08:41:20;101584.38;;;1.81;100.00
19236;BME280;9752;54.270;12.470;2023-02-02T08:46:22;101592.59;;;1.63;100.00
19236;BME280;9752;54.270;12.470;2023-02-02T08:51:25;101596.41;;;1.50;100.00
19236;BME280;9752;54.270;12.470;2023-02-02T08:56:26;101592.06;;;1.65;100.00
19236;BME280;9752;54.270;12.470;2023-02-02T09:01:29;101601.22;;;1.63;100.00
19236;BME280;9752;54.270;12.470;2023-02-02T09:06:35;101600.25;;;2.26;100.00
19236;BME280;9752;54.270;12.470;2023-02-02T09:11:37;101630.13;;;2.34;100.00
19236;BME280;9752;54.270;12.470;2023-02-02T09:16:39;101615.63;;;2.26;100.00
19236;BME280;9752;54.270;12.470;2023-02-02T09:21:42;101621.81;;;2.12;100.00
19236;BME280;9752;54.270;12.470;2023-02-02T09:26:44;101635.59;;;2.38;100.00
19236;BME280;9752;54.270;12.470;2023-02-02T09:31:46;101652.69;;;2.14;100.00
19236;BME280;9752;54.270;12.470;2023-02-02T09:36:49;101658.72;;;2.14;100.00
19236;BME280;9752;54.270;12.470;2023-02-02T09:42:18;101680.34;;;2.25;100.00
19236;BME280;9752;54.270;12.470;2023-02-02T09:47:39;101681.25;;;2.42;100.00
19236;BME280;9752;54.270;12.470;2023-02-02T09:52:52;101682.16;;;2.42;100.00
19236;BME280;9752;54.270;12.470;2023-02-02T09:58:00;101695.34;;;2.54;100.00
19236;BME280;9752;54.270;12.470;2023-02-02T10:03:11;101696.03;;;2.60;100.00
19236;BME280;9752;54.270;12.470;2023-02-02T10:08:24;101703.19;;;2.71;100.00
19236;BME280;9752;54.270;12.470;2023-02-02T10:13:30;101714.59;;;2.66;100.00
19236;BME280;9752;54.270;12.470;2023-02-02T10:18:39;101733.59;;;2.68;100.00
19236;BME280;9752;54.270;12.470;2023-02-02T10:23:43;101733.03;;;2.55;100.00
19236;BME280;9752;54.270;12.470;2023-02-02T10:28:59;101750.31;;;2.49;100.00
19236;BME280;9752;54.270;12.470;2023-02-02T10:34:12;101752.69;;;2.47;100.00
19236;BME280;9752;54.270;12.470;2023-02-02T10:39:21;101768.38;;;2.19;100.00
19236;BME280;9752;54.270;12.470;2023-02-02T10:44:32;101786.56;;;2.45;100.00
19236;BME280;9752;54.270;12.470;2023-02-02T10:49:39;101795.69;;;2.43;100.00
19236;BME280;9752;54.270;12.470;2023-02-02T10:54:50;101801.91;;;2.29;100.00
19236;BME280;9752;54.270;12.470;2023-02-02T11:00:03;101801.66;;;2.34;100.00
19236;BME280;9752;54.270;12.470;2023-02-02T11:05:19;101809.41;;;2.27;100.00
19236;BME280;9752;54.270;12.470;2023-02-02T11:10:41;101807.53;;;2.49;100.00
19236;BME280;9752;54.270;12.470;2023-02-02T11:15:43;101821.03;;;2.71;100.00
19236;BME280;9752;54.270;12.470;2023-02-02T11:20:45;101835.72;;;2.65;100.00
19236;BME280;9752;54.270;12.470;2023-02-02T11:25:57;101842.28;;;2.31;100.00
19236;BME280;9752;54.270;12.470;2023-02-02T11:31:00;101849.22;;;2.32;100.00
19236;BME280;9752;54.270;12.470;2023-02-02T11:36:04;101858.03;;;2.27;100.00
19236;BME280;9752;54.270;12.470;2023-02-02T11:41:08;101869.75;;;2.25;100.00
19236;BME280;9752;54.270;12.470;2023-02-02T11:46:17;101863.09;;;2.34;100.00
19236;BME280;9752;54.270;12.470;2023-02-02T11:51:22;101870.38;;;2.39;100.00
19236;BME280;9752;54.270;12.470;2023-02-02T11:56:26;101877.63;;;2.43;100.00
19236;BME280;9752;54.270;12.470;2023-02-02T12:01:30;101888.34;;;2.54;100.00
19236;BME280;9752;54.270;12.470;2023-02-02T12:06:34;101890.34;;;2.34;100.00
19236;BME280;9752;54.270;12.470;2023-02-02T12:11:47;101878.56;;;2.43;100.00
19236;BME280;9752;54.270;12.470;2023-02-02T12:16:57;101880.13;;;2.34;100.00
19236;BME280;9752;54.270;12.470;2023-02-02T12:22:05;101895.19;;;2.47;100.00
19236;BME280;9752;54.270;12.470;2023-02-02T12:27:18;101893.28;;;2.53;100.00
19236;BME280;9752;54.270;12.470;2023-02-02T12:32:26;101909.97;;;2.49;100.00
19236;BME280;9752;54.270;12.470;2023-02-02T12:37:42;101901.88;;;2.53;100.00
19236;BME280;9752;54.270;12.470;2023-02-02T12:43:00;101900.91;;;2.76;100.00
19236;BME280;9752;54.270;12.470;2023-02-02T12:48:15;101915.53;;;2.61;100.00
19236;BME280;9752;54.270;12.470;2023-02-02T12:53:31;101909.72;;;2.55;100.00
19236;BME280;9752;54.270;12.470;2023-02-02T12:58:45;101916.94;;;2.66;100.00
19236;BME280;9752;54.270;12.470;2023-02-02T13:04:01;101922.66;;;2.80;100.00
19236;BME280;9752;54.270;12.470;2023-02-02T13:09:09;101928.94;;;2.74;100.00
19236;BME280;9752;54.270;12.470;2023-02-02T13:14:16;101936.84;;;2.69;100.00
19236;BME280;9752;54.270;12.470;2023-02-02T13:19:30;101936.84;;;2.53;100.00
19236;BME280;9752;54.270;12.470;2023-02-02T13:24:36;101946.72;;;2.50;100.00
19236;BME280;9752;54.270;12.470;2023-02-02T13:29:43;101952.56;;;2.72;100.00
19236;BME280;9752;54.270;12.470;2023-02-02T13:34:48;101958.94;;;2.76;100.00
19236;BME280;9752;54.270;12.470;2023-02-02T13:39:55;101960.09;;;2.86;100.00
19236;BME280;9752;54.270;12.470;2023-02-02T13:45:04;101974.63;;;2.79;100.00
19236;BME280;9752;54.270;12.470;2023-02-02T13:50:12;101984.13;;;2.64;100.00
19236;BME280;9752;54.270;12.470;2023-02-02T13:55:31;101999.56;;;2.57;100.00
19236;BME280;9752;54.270;12.470;2023-02-02T14:00:37;102022.81;;;2.51;100.00
19236;BME280;9752;54.270;12.470;2023-02-02T14:05:41;102024.75;;;2.38;100.00
19236;BME280;9752;54.270;12.470;2023-02-02T14:10:54;102026.50;;;2.46;100.00
19236;BME280;9752;54.270;12.470;2023-02-02T14:16:00;102031.41;;;2.51;100.00
19236;BME280;9752;54.270;12.470;2023-02-02T14:21:03;102036.03;;;2.47;100.00
19236;BME280;9752;54.270;12.470;2023-02-02T14:26:06;102049.50;;;2.53;100.00
19236;BME280;9752;54.270;12.470;2023-02-02T14:31:50;102049.84;;;2.56;100.00
19236;BME280;9752;54.270;12.470;2023-02-02T14:37:02;102066.75;;;2.47;100.00
19236;BME280;9752;54.270;12.470;2023-02-02T14:42:18;102071.75;;;2.38;100.00
19236;BME280;9752;54.270;12.470;2023-02-02T14:47:48;102086.81;;;2.28;100.00
19236;BME280;9752;54.270;12.470;2023-02-02T14:53:03;102096.50;;;2.23;100.00
19236;BME280;9752;54.270;12.470;2023-02-02T14:58:08;102089.03;;;2.18;100.00
19236;BME280;9752;54.270;12.470;2023-02-02T15:09:25;102114.50;;;2.09;100.00
19236;BME280;9752;54.270;12.470;2023-02-02T15:14:32;102120.03;;;1.98;100.00
19236;BME280;9752;54.270;12.470;2023-02-02T15:19:38;102132.16;;;1.84;100.00
19236;BME280;9752;54.270;12.470;2023-02-02T15:24:44;102136.75;;;1.65;100.00
19236;BME280;9752;54.270;12.470;2023-02-02T15:29:51;102136.94;;;1.60;100.00
19236;BME280;9752;54.270;12.470;2023-02-02T15:34:58;102142.25;;;1.47;100.00
19236;BME280;9752;54.270;12.470;2023-02-02T15:40:05;102152.28;;;1.31;100.00
19236;BME280;9752;54.270;12.470;2023-02-02T15:45:30;102152.84;;;1.21;100.00
19236;BME280;9752;54.270;12.470;2023-02-02T15:50:34;102164.34;;;1.17;100.00
19236;BME280;9752;54.270;12.470;2023-02-02T15:55:37;102167.25;;;1.06;100.00
19236;BME280;9752;54.270;12.470;2023-02-02T16:00:39;102177.66;;;1.08;100.00
19236;BME280;9752;54.270;12.470;2023-02-02T16:05:44;102176.56;;;0.91;100.00
19236;BME280;9752;54.270;12.470;2023-02-02T16:10:49;102195.38;;;1.13;100.00
19236;BME280;9752;54.270;12.470;2023-02-02T16:15:55;102193.53;;;0.98;100.00
19236;BME280;9752;54.270;12.470;2023-02-02T16:20:59;102205.59;;;0.99;100.00
19236;BME280;9752;54.270;12.470;2023-02-02T16:26:04;102216.69;;;0.85;100.00
19236;BME280;9752;54.270;12.470;2023-02-02T16:31:07;102233.56;;;0.56;100.00
19236;BME280;9752;54.270;12.470;2023-02-02T16:36:18;102235.81;;;-0.02;100.00
19236;BME280;9752;54.270;12.470;2023-02-02T16:41:27;102238.41;;;-0.49;100.00
19236;BME280;9752;54.270;12.470;2023-02-02T16:46:43;102255.72;;;-0.66;100.00
19236;BME280;9752;54.270;12.470;2023-02-02T16:51:47;102264.19;;;-0.93;100.00
19236;BME280;9752;54.270;12.470;2023-02-02T16:56:58;102275.31;;;-1.05;100.00
19236;BME280;9752;54.270;12.470;2023-02-02T17:02:03;102289.94;;;-1.17;100.00
19236;BME280;9752;54.270;12.470;2023-02-02T17:07:08;102292.56;;;-1.10;100.00
19236;BME280;9752;54.270;12.470;2023-02-02T17:12:23;102298.84;;;-0.68;100.00
19236;BME280;9752;54.270;12.470;2023-02-02T17:17:26;102310.41;;;-0.37;100.00
19236;BME280;9752;54.270;12.470;2023-02-02T17:22:29;102326.28;;;-0.32;100.00
19236;BME280;9752;54.270;12.470;2023-02-02T17:27:34;102327.94;;;-0.13;100.00
19236;BME280;9752;54.270;12.470;2023-02-02T17:32:35;102337.13;;;-0.01;100.00
19236;BME280;9752;54.270;12.470;2023-02-02T17:37:37;102341.84;;;-0.04;100.00
19236;BME280;9752;54.270;12.470;2023-02-02T17:42:40;102344.53;;;-0.29;100.00
19236;BME280;9752;54.270;12.470;2023-02-02T17:47:43;102357.97;;;-0.50;100.00
19236;BME280;9752;54.270;12.470;2023-02-02T17:52:44;102357.56;;;-0.73;100.00
19236;BME280;9752;54.270;12.470;2023-02-02T17:57:50;102361.16;;;-0.91;100.00
19236;BME280;9752;54.270;12.470;2023-02-02T18:02:54;102367.22;;;-1.16;100.00
19236;BME280;9752;54.270;12.470;2023-02-02T18:07:58;102369.59;;;-1.31;100.00
19236;BME280;9752;54.270;12.470;2023-02-02T18:13:01;102366.00;;;-1.51;100.00
19236;BME280;9752;54.270;12.470;2023-02-02T18:18:03;102368.44;;;-1.59;100.00
19236;BME280;9752;54.270;12.470;2023-02-02T18:23:05;102379.50;;;-1.71;100.00
19236;BME280;9752;54.270;12.470;2023-02-02T18:28:08;102375.16;;;-1.72;100.00
19236;BME280;9752;54.270;12.470;2023-02-02T18:33:11;102394.16;;;-1.75;100.00
19236;BME280;9752;54.270;12.470;2023-02-02T18:38:14;102390.72;;;-1.76;100.00
19236;BME280;9752;54.270;12.470;2023-02-02T18:43:17;102395.38;;;-1.79;100.00
19236;BME280;9752;54.270;12.470;2023-02-02T18:48:18;102395.06;;;-1.75;100.00
19236;BME280;9752;54.270;12.470;2023-02-02T18:53:20;102394.25;;;-1.81;100.00
19236;BME280;9752;54.270;12.470;2023-02-02T18:58:23;102387.53;;;-1.81;100.00
19236;BME280;9752;54.270;12.470;2023-02-02T19:03:26;102383.97;;;-1.88;100.00
19236;BME280;9752;54.270;12.470;2023-02-02T19:08:29;102386.47;;;-2.01;100.00
19236;BME280;9752;54.270;12.470;2023-02-02T19:13:32;102387.69;;;-2.05;100.00
19236;BME280;9752;54.270;12.470;2023-02-02T19:18:34;102387.78;;;-2.10;100.00
19236;BME280;9752;54.270;12.470;2023-02-02T19:23:36;102399.38;;;-2.12;100.00
19236;BME280;9752;54.270;12.470;2023-02-02T19:28:39;102401.31;;;-2.04;100.00
19236;BME280;9752;54.270;12.470;2023-02-02T19:33:43;102391.44;;;-2.08;100.00
19236;BME280;9752;54.270;12.470;2023-02-02T19:38:46;102394.16;;;-2.20;100.00
19236;BME280;9752;54.270;12.470;2023-02-02T19:43:54;102392.81;;;-2.23;100.00
19236;BME280;9752;54.270;12.470;2023-02-02T19:49:03;102391.34;;;-2.34;100.00
19236;BME280;9752;54.270;12.470;2023-02-02T19:54:17;102404.13;;;-2.40;100.00
19236;BME280;9752;54.270;12.470;2023-02-02T19:59:25;102394.09;;;-2.32;100.00
19236;BME280;9752;54.270;12.470;2023-02-02T20:04:31;102392.91;;;-2.29;100.00
19236;BME280;9752;54.270;12.470;2023-02-02T20:09:33;102398.19;;;-2.27;100.00
19236;BME280;9752;54.270;12.470;2023-02-02T20:14:37;102400.75;;;-2.14;100.00
19236;BME280;9752;54.270;12.470;2023-02-02T20:19:40;102390.88;;;-2.31;100.00
19236;BME280;9752;54.270;12.470;2023-02-02T20:24:42;102394.94;;;-2.26;100.00
19236;BME280;9752;54.270;12.470;2023-02-02T20:29:47;102401.78;;;-2.20;100.00
19236;BME280;9752;54.270;12.470;2023-02-02T20:34:50;102396.44;;;-2.03;100.00
19236;BME280;9752;54.270;12.470;2023-02-02T20:39:54;102394.56;;;-1.85;100.00
19236;BME280;9752;54.270;12.470;2023-02-02T20:44:57;102386.75;;;-1.74;100.00
19236;BME280;9752;54.270;12.470;2023-02-02T20:49:59;102398.47;;;-1.56;100.00
19236;BME280;9752;54.270;12.470;2023-02-02T20:55:01;102402.44;;;-1.45;100.00
19236;BME280;9752;54.270;12.470;2023-02-02T21:00:05;102406.00;;;-1.38;100.00
19236;BME280;9752;54.270;12.470;2023-02-02T21:05:07;102392.06;;;-1.34;100.00
19236;BME280;9752;54.270;12.470;2023-02-02T21:10:09;102395.09;;;-1.24;100.00
19236;BME280;9752;54.270;12.470;2023-02-02T21:15:12;102386.56;;;-1.11;100.00
19236;BME280;9752;54.270;12.470;2023-02-02T21:20:14;102383.91;;;-0.93;100.00
19236;BME280;9752;54.270;12.470;2023-02-02T21:25:16;102367.19;;;-0.91;100.00
19236;BME280;9752;54.270;12.470;2023-02-02T21:30:19;102359.53;;;-0.91;100.00
19236;BME280;9752;54.270;12.470;2023-02-02T21:35:21;102356.06;;;-0.91;100.00
19236;BME280;9752;54.270;12.470;2023-02-02T21:40:25;102365.44;;;-0.85;100.00
19236;BME280;9752;54.270;12.470;2023-02-02T21:45:34;102366.53;;;-0.83;100.00
19236;BME280;9752;54.270;12.470;2023-02-02T21:50:39;102361.75;;;-0.74;100.00
19236;BME280;9752;54.270;12.470;2023-02-02T21:55:42;102352.47;;;-0.73;100.00
19236;BME280;9752;54.270;12.470;2023-02-02T22:00:46;102360.69;;;-0.69;100.00
19236;BME280;9752;54.270;12.470;2023-02-02T22:05:47;102360.31;;;-0.52;100.00
19236;BME280;9752;54.270;12.470;2023-02-02T22:10:49;102361.22;;;-0.51;100.00
19236;BME280;9752;54.270;12.470;2023-02-02T22:15:53;102348.69;;;-0.50;100.00
19236;BME280;9752;54.270;12.470;2023-02-02T22:20:54;102348.97;;;-0.41;100.00
19236;BME280;9752;54.270;12.470;2023-02-02T22:25:56;102328.44;;;-0.35;100.00
19236;BME280;9752;54.270;12.470;2023-02-02T22:31:00;102326.47;;;-0.31;100.00
19236;BME280;9752;54.270;12.470;2023-02-02T22:36:01;102315.69;;;-0.15;100.00
19236;BME280;9752;54.270;12.470;2023-02-02T22:41:03;102316.91;;;0.01;100.00
19236;BME280;9752;54.270;12.470;2023-02-02T22:46:07;102305.19;;;0.16;100.00
19236;BME280;9752;54.270;12.470;2023-02-02T22:51:08;102305.25;;;0.30;100.00
19236;BME280;9752;54.270;12.470;2023-02-02T22:56:10;102283.97;;;0.37;100.00
19236;BME280;9752;54.270;12.470;2023-02-02T23:01:13;102259.06;;;0.49;100.00
19236;BME280;9752;54.270;12.470;2023-02-02T23:06:15;102243.94;;;0.50;100.00
19236;BME280;9752;54.270;12.470;2023-02-02T23:11:16;102232.06;;;0.51;100.00
19236;BME280;9752;54.270;12.470;2023-02-02T23:16:19;102204.59;;;0.63;100.00
19236;BME280;9752;54.270;12.470;2023-02-02T23:21:21;102168.66;;;0.68;100.00
19236;BME280;9752;54.270;12.470;2023-02-02T23:26:23;102152.66;;;0.84;100.00
19236;BME280;9752;54.270;12.470;2023-02-02T23:31:26;102125.31;;;0.97;100.00
19236;BME280;9752;54.270;12.470;2023-02-02T23:36:28;102081.13;;;1.05;100.00
19236;BME280;9752;54.270;12.470;2023-02-02T23:41:29;102076.38;;;1.23;100.00
19236;BME280;9752;54.270;12.470;2023-02-02T23:46:32;102097.91;;;1.39;100.00
19236;BME280;9752;54.270;12.470;2023-02-02T23:51:34;102067.41;;;1.41;100.00
19236;BME280;9752;54.270;12.470;2023-02-02T23:56:36;102055.34;;;1.32;100.00
